sensor_id;sensor_type;location;lat;lon;timestamp;pressure;altitude;pressure_sealevel;temperature;humidity
37390;BME280;39679;49.000;8.390;2022-09-24T00:03:13;99926.75;;;20.74;48.50
37390;BME280;39679;49.000;8.390;2022-09-24T00:08:15;99920.53;;;20.74;48.58
37390;BME280;39679;49.000;8.390;2022-09-24T00:13:16;99908.09;;;20.74;48.68
37390;BME280;39679;49.000;8.390;2022-09-24T00:18:17;99907.22;;;20.74;48.65
37390;BME280;39679;49.000;8.390;2022-09-24T00:23:17;99905.50;;;20.73;48.67
37390;BME280;39679;49.000;8.390;2022-09-24T00:28:18;99910.84;;;20.73;48.66
37390;BME280;39679;49.000;8.390;2022-09-24T00:33:18;99906.34;;;20.73;48.64
37390;BME280;39679;49.000;8.390;2022-09-24T00:38:18;99900.19;;;20.73;48.68
37390;BME280;39679;49.000;8.390;2022-09-24T00:48:28;99887.72;;;20.73;48.61
37390;BME280;39679;49.000;8.390;2022-09-24T00:53:29;99886.00;;;20.72;48.68
37390;BME280;39679;49.000;8.390;2022-09-24T00:58:29;99883.34;;;20.72;48.74
37390;BME280;39679;49.000;8.390;2022-09-24T01:03:31;99877.13;;;20.72;48.71
37390;BME280;39679;49.000;8.390;2022-09-24T01:08:32;99879.78;;;20.72;48.46
37390;BME280;39679;49.000;8.390;2022-09-24T01:30:29;99866.63;;;20.69;48.50
37390;BME280;39679;49.000;8.390;2022-09-24T01:35:37;99869.28;;;20.69;48.45
37390;BME280;39679;49.000;8.390;2022-09-24T01:40:38;99851.56;;;20.68;48.42
37390;BME280;39679;49.000;8.390;2022-09-24T01:45:40;99853.34;;;20.67;48.37
37390;BME280;39679;49.000;8.390;2022-09-24T01:50:54;99843.56;;;20.68;48.34
37390;BME280;39679;49.000;8.390;2022-09-24T01:56:01;99840.09;;;20.66;48.41
37390;BME280;39679;49.000;8.390;2022-09-24T02:01:12;99831.19;;;20.67;48.46
37390;BME280;39679;49.000;8.390;2022-09-24T02:06:22;99831.19;;;20.67;48.27
37390;BME280;39679;49.000;8.390;2022-09-24T02:11:24;99832.03;;;20.67;48.59
37390;BME280;39679;49.000;8.390;2022-09-24T02:16:41;99827.59;;;20.68;48.61
37390;BME280;39679;49.000;8.390;2022-09-24T02:21:43;99832.00;;;20.69;48.69
37390;BME280;39679;49.000;8.390;2022-09-24T02:26:45;99828.47;;;20.68;48.61
37390;BME280;39679;49.000;8.390;2022-09-24T02:31:48;99824.84;;;20.69;48.36
37390;BME280;39679;49.000;8.390;2022-09-24T02:36:54;99826.69;;;20.69;48.56
37390;BME280;39679;49.000;8.390;2022-09-24T02:41:57;99822.25;;;20.68;48.51
37390;BME280;39679;49.000;8.390;2022-09-24T02:46:57;99827.50;;;20.69;48.53
37390;BME280;39679;49.000;8.390;2022-09-24T02:51:58;99826.69;;;20.69;48.70
37390;BME280;39679;49.000;8.390;2022-09-24T02:56:58;99832.84;;;20.69;48.74
37390;BME280;39679;49.000;8.390;2022-09-24T03:01:58;99817.81;;;20.68;48.83
37390;BME280;39679;49.000;8.390;2022-09-24T03:06:59;99821.34;;;20.69;48.96
37390;BME280;39679;49.000;8.390;2022-09-24T03:11:59;99811.53;;;20.69;48.78
37390;BME280;39679;49.000;8.390;2022-09-24T03:17:00;99804.44;;;20.70;49.04
37390;BME280;39679;49.000;8.390;2022-09-24T03:22:00;99813.28;;;20.70;48.99
37390;BME280;39679;49.000;8.390;2022-09-24T03:27:00;99807.09;;;20.70;48.95
37390;BME280;39679;49.000;8.390;2022-09-24T03:32:01;99801.75;;;20.70;49.03
37390;BME280;39679;49.000;8.390;2022-09-24T03:37:01;99819.50;;;20.71;49.02
37390;BME280;39679;49.000;8.390;2022-09-24T03:42:02;99824.81;;;20.71;49.13
37390;BME280;39679;49.000;8.390;2022-09-24T03:47:02;99815.00;;;20.71;49.32
37390;BME280;39679;49.000;8.390;2022-09-24T03:52:02;99819.50;;;20.71;49.62
37390;BME280;39679;49.000;8.390;2022-09-24T03:57:02;99809.69;;;20.71;49.44
37390;BME280;39679;49.000;8.390;2022-09-24T04:02:03;99807.00;;;20.71;49.19
37390;BME280;39679;49.000;8.390;2022-09-24T04:07:04;99803.50;;;20.71;49.26
37390;BME280;39679;49.000;8.390;2022-09-24T04:12:04;99803.44;;;20.72;49.56
37390;BME280;39679;49.000;8.390;2022-09-24T04:17:04;99804.31;;;20.73;49.30
37390;BME280;39679;49.000;8.390;2022-09-24T04:22:05;99803.44;;;20.72;49.34
37390;BME280;39679;49.000;8.390;2022-09-24T04:27:05;99801.69;;;20.71;49.42
37390;BME280;39679;49.000;8.390;2022-09-24T04:32:05;99794.56;;;20.72;49.65
37390;BME280;39679;49.000;8.390;2022-09-24T04:37:06;99798.13;;;20.72;50.03
37390;BME280;39679;49.000;8.390;2022-09-24T04:42:06;99794.56;;;20.72;50.15
37390;BME280;39679;49.000;8.390;2022-09-24T04:47:06;99782.13;;;20.72;49.90
37390;BME280;39679;49.000;8.390;2022-09-24T04:52:07;99796.38;;;20.71;49.93
37390;BME280;39679;49.000;8.390;2022-09-24T04:57:07;99802.56;;;20.72;50.28
37390;BME280;39679;49.000;8.390;2022-09-24T05:02:08;99799.91;;;20.72;50.01
37390;BME280;39679;49.000;8.390;2022-09-24T05:07:08;99791.91;;;20.72;50.02
37390;BME280;39679;49.000;8.390;2022-09-24T05:12:09;99795.44;;;20.72;50.13
37390;BME280;39679;49.000;8.390;2022-09-24T05:17:09;99793.66;;;20.73;50.29
37390;BME280;39679;49.000;8.390;2022-09-24T05:22:10;99799.00;;;20.73;50.26
37390;BME280;39679;49.000;8.390;2022-09-24T05:27:10;99799.00;;;20.73;50.42
37390;BME280;39679;49.000;8.390;2022-09-24T05:32:12;99799.00;;;20.73;50.23
37390;BME280;39679;49.000;8.390;2022-09-24T05:37:14;99806.97;;;20.73;50.25
37390;BME280;39679;49.000;8.390;2022-09-24T05:42:14;99806.97;;;20.73;50.37
37390;BME280;39679;49.000;8.390;2022-09-24T05:47:14;99815.81;;;20.73;50.40
37390;BME280;39679;49.000;8.390;2022-09-24T05:52:15;99812.31;;;20.73;50.82
37390;BME280;39679;49.000;8.390;2022-09-24T05:57:15;99810.47;;;20.73;50.70
37390;BME280;39679;49.000;8.390;2022-09-24T06:02:15;99812.31;;;20.73;50.73
37390;BME280;39679;49.000;8.390;2022-09-24T06:07:16;99811.34;;;20.74;50.65
37390;BME280;39679;49.000;8.390;2022-09-24T06:12:16;99807.81;;;20.73;50.82
37390;BME280;39679;49.000;8.390;2022-09-24T06:17:17;99815.81;;;20.73;50.85
37390;BME280;39679;49.000;8.390;2022-09-24T06:22:17;99822.97;;;20.73;50.52
37390;BME280;39679;49.000;8.390;2022-09-24T06:27:17;99822.97;;;20.73;50.77
37390;BME280;39679;49.000;8.390;2022-09-24T06:32:17;99823.81;;;20.73;50.85
37390;BME280;39679;49.000;8.390;2022-09-24T06:37:18;99823.88;;;20.72;50.80
37390;BME280;39679;49.000;8.390;2022-09-24T06:42:18;99835.41;;;20.72;50.76
37390;BME280;39679;49.000;8.390;2022-09-24T06:47:18;99841.63;;;20.71;50.54
37390;BME280;39679;49.000;8.390;2022-09-24T06:52:19;99830.97;;;20.71;50.86
37390;BME280;39679;49.000;8.390;2022-09-24T06:57:19;99827.41;;;20.72;50.65
37390;BME280;39679;49.000;8.390;2022-09-24T07:02:19;99828.31;;;20.71;50.72
37390;BME280;39679;49.000;8.390;2022-09-24T07:07:20;99834.53;;;20.72;50.74
37390;BME280;39679;49.000;8.390;2022-09-24T07:12:20;99841.59;;;20.73;50.83
37390;BME280;39679;49.000;8.390;2022-09-24T07:17:21;99847.84;;;20.72;50.80
37390;BME280;39679;49.000;8.390;2022-09-24T07:22:21;99845.19;;;20.72;50.93
37390;BME280;39679;49.000;8.390;2022-09-24T07:27:22;99844.28;;;20.71;50.74
37390;BME280;39679;49.000;8.390;2022-09-24T07:32:22;99848.72;;;20.72;50.94
37390;BME280;39679;49.000;8.390;2022-09-24T07:37:22;99871.81;;;20.72;50.85
37390;BME280;39679;49.000;8.390;2022-09-24T07:42:23;99882.47;;;20.72;50.93
37390;BME280;39679;49.000;8.390;2022-09-24T07:47:23;99874.47;;;20.72;50.65
37390;BME280;39679;49.000;8.390;2022-09-24T07:52:23;99869.13;;;20.72;50.79
37390;BME280;39679;49.000;8.390;2022-09-24T07:57:24;99871.81;;;20.72;50.76
37390;BME280;39679;49.000;8.390;2022-09-24T08:02:24;99863.81;;;20.72;50.86
37390;BME280;39679;49.000;8.390;2022-09-24T08:07:25;99862.94;;;20.71;50.88
37390;BME280;39679;49.000;8.390;2022-09-24T08:12:25;99859.44;;;20.71;50.86
37390;BME280;39679;49.000;8.390;2022-09-24T08:17:26;99875.41;;;20.71;51.02
37390;BME280;39679;49.000;8.390;2022-09-24T08:22:26;99870.09;;;20.71;50.66
37390;BME280;39679;49.000;8.390;2022-09-24T08:27:26;99866.53;;;20.70;50.76
37390;BME280;39679;49.000;8.390;2022-09-24T08:32:27;99871.06;;;20.68;50.90
37390;BME280;39679;49.000;8.390;2022-09-24T08:37:28;99871.88;;;20.70;50.85
37390;BME280;39679;49.000;8.390;2022-09-24T08:42:43;99880.75;;;20.71;50.86
37390;BME280;39679;49.000;8.390;2022-09-24T08:53:05;99879.84;;;20.70;50.49
37390;BME280;39679;49.000;8.390;2022-09-24T09:03:27;99887.84;;;20.70;50.73
37390;BME280;39679;49.000;8.390;2022-09-24T09:14:10;99888.75;;;20.69;50.58
37390;BME280;39679;49.000;8.390;2022-09-24T09:19:15;99887.84;;;20.70;50.49
37390;BME280;39679;49.000;8.390;2022-09-24T09:24:18;99878.09;;;20.69;50.47
37390;BME280;39679;49.000;8.390;2022-09-24T09:29:21;99890.59;;;20.69;50.82
37390;BME280;39679;49.000;8.390;2022-09-24T09:39:51;99885.19;;;20.70;50.61
37390;BME280;39679;49.000;8.390;2022-09-24T09:44:54;99897.63;;;20.70;50.71
37390;BME280;39679;49.000;8.390;2022-09-24T09:49:56;99894.97;;;20.70;50.50
37390;BME280;39679;49.000;8.390;2022-09-24T09:55:02;99898.50;;;20.70;50.94
37390;BME280;39679;49.000;8.390;2022-09-24T10:00:03;99886.06;;;20.71;50.70
37390;BME280;39679;49.000;8.390;2022-09-24T10:05:04;99885.19;;;20.70;50.50
37390;BME280;39679;49.000;8.390;2022-09-24T10:10:21;99875.41;;;20.71;50.76
37390;BME280;39679;49.000;8.390;2022-09-24T10:15:22;99878.09;;;20.69;50.53
37390;BME280;39679;49.000;8.390;2022-09-24T10:20:25;99879.94;;;20.69;50.57
37390;BME280;39679;49.000;8.390;2022-09-24T10:25:28;99879.06;;;20.68;50.85
37390;BME280;39679;49.000;8.390;2022-09-24T10:30:28;99881.72;;;20.68;51.00
37390;BME280;39679;49.000;8.390;2022-09-24T10:35:35;99880.78;;;20.69;51.36
37390;BME280;39679;49.000;8.390;2022-09-24T10:40:39;99877.19;;;20.70;51.30
37390;BME280;39679;49.000;8.390;2022-09-24T11:01:46;99863.00;;;20.70;51.39
37390;BME280;39679;49.000;8.390;2022-09-24T11:32:58;99848.66;;;20.74;51.89
37390;BME280;39679;49.000;8.390;2022-09-24T11:38:03;99834.44;;;20.73;51.93
37390;BME280;39679;49.000;8.390;2022-09-24T11:53:35;99830.94;;;20.73;52.15
37390;BME280;39679;49.000;8.390;2022-09-24T11:58:44;99826.47;;;20.73;52.10
37390;BME280;39679;49.000;8.390;2022-09-24T12:03:57;99825.56;;;20.74;52.07
37390;BME280;39679;49.000;8.390;2022-09-24T12:09:36;99814.81;;;20.76;52.15
37390;BME280;39679;49.000;8.390;2022-09-24T12:14:52;99812.97;;;20.78;51.89
37390;BME280;39679;49.000;8.390;2022-09-24T12:20:30;99811.19;;;20.78;51.78
37390;BME280;39679;49.000;8.390;2022-09-24T12:25:40;99807.56;;;20.79;52.14
37390;BME280;39679;49.000;8.390;2022-09-24T12:30:46;99802.25;;;20.79;52.27
37390;BME280;39679;49.000;8.390;2022-09-24T12:41:10;99802.19;;;20.81;52.33
37390;BME280;39679;49.000;8.390;2022-09-24T12:46:19;99793.28;;;20.82;52.50
37390;BME280;39679;49.000;8.390;2022-09-24T12:51:21;99787.88;;;20.83;52.47
37390;BME280;39679;49.000;8.390;2022-09-24T12:56:27;99786.88;;;20.86;52.36
37390;BME280;39679;49.000;8.390;2022-09-24T13:01:30;99786.78;;;20.89;52.98
37390;BME280;39679;49.000;8.390;2022-09-24T13:06:34;99782.16;;;20.92;52.17
37390;BME280;39679;49.000;8.390;2022-09-24T13:11:34;99774.91;;;20.96;52.93
37390;BME280;39679;49.000;8.390;2022-09-24T13:16:43;99771.13;;;21.01;52.84
37390;BME280;39679;49.000;8.390;2022-09-24T13:21:55;99769.16;;;21.06;52.85
37390;BME280;39679;49.000;8.390;2022-09-24T13:32:35;99765.03;;;21.19;52.71
37390;BME280;39679;49.000;8.390;2022-09-24T13:37:39;99762.13;;;21.25;52.23
37390;BME280;39679;49.000;8.390;2022-09-24T13:48:29;99761.91;;;21.30;52.22
37390;BME280;39679;49.000;8.390;2022-09-24T13:53:47;99756.59;;;21.30;51.56
37390;BME280;39679;49.000;8.390;2022-09-24T13:58:50;99749.44;;;21.30;51.76
37390;BME280;39679;49.000;8.390;2022-09-24T14:04:04;99737.78;;;21.33;51.09
37390;BME280;39679;49.000;8.390;2022-09-24T14:09:31;99743.72;;;21.40;51.15
37390;BME280;39679;49.000;8.390;2022-09-24T14:14:33;99737.44;;;21.41;50.79
37390;BME280;39679;49.000;8.390;2022-09-24T14:19:34;99732.06;;;21.42;50.46
37390;BME280;39679;49.000;8.390;2022-09-24T14:24:46;99736.31;;;21.46;50.79
37390;BME280;39679;49.000;8.390;2022-09-24T14:30:02;99735.34;;;21.47;51.06
37390;BME280;39679;49.000;8.390;2022-09-24T14:35:07;99742.38;;;21.50;51.09
37390;BME280;39679;49.000;8.390;2022-09-24T14:40:14;99729.16;;;21.47;50.59
37390;BME280;39679;49.000;8.390;2022-09-24T14:45:29;99742.72;;;21.42;50.24
37390;BME280;39679;49.000;8.390;2022-09-24T14:50:39;99742.03;;;21.37;50.06
37390;BME280;39679;49.000;8.390;2022-09-24T14:55:41;99736.00;;;21.33;50.25
37390;BME280;39679;49.000;8.390;2022-09-24T15:00:47;99734.41;;;21.29;50.56
37390;BME280;39679;49.000;8.390;2022-09-24T15:05:50;99728.34;;;21.26;51.18
37390;BME280;39679;49.000;8.390;2022-09-24T15:10:58;99729.34;;;21.23;51.48
37390;BME280;39679;49.000;8.390;2022-09-24T15:16:01;99718.88;;;21.19;52.06
37390;BME280;39679;49.000;8.390;2022-09-24T15:21:01;99719.88;;;21.16;52.15
37390;BME280;39679;49.000;8.390;2022-09-24T15:26:02;99717.34;;;21.13;52.36
37390;BME280;39679;49.000;8.390;2022-09-24T15:31:02;99720.13;;;21.10;52.10
37390;BME280;39679;49.000;8.390;2022-09-24T15:36:03;99722.00;;;21.08;52.29
37390;BME280;39679;49.000;8.390;2022-09-24T15:41:06;99718.53;;;21.06;52.27
37390;BME280;39679;49.000;8.390;2022-09-24T15:46:06;99721.28;;;21.05;52.69
37390;BME280;39679;49.000;8.390;2022-09-24T15:51:09;99724.88;;;21.04;52.58
37390;BME280;39679;49.000;8.390;2022-09-24T15:56:09;99728.47;;;21.03;53.50
37390;BME280;39679;49.000;8.390;2022-09-24T16:01:15;99718.72;;;21.02;53.75
37390;BME280;39679;49.000;8.390;2022-09-24T16:06:16;99718.78;;;21.00;53.72
37390;BME280;39679;49.000;8.390;2022-09-24T16:11:16;99719.72;;;20.99;53.90
37390;BME280;39679;49.000;8.390;2022-09-24T16:16:16;99724.25;;;20.97;53.72
37390;BME280;39679;49.000;8.390;2022-09-24T16:21:17;99718.13;;;20.95;53.74
37390;BME280;39679;49.000;8.390;2022-09-24T16:26:17;99723.44;;;20.95;54.28
37390;BME280;39679;49.000;8.390;2022-09-24T16:31:18;99724.44;;;20.93;55.02
37390;BME280;39679;49.000;8.390;2022-09-24T16:36:18;99719.16;;;20.91;54.85
37390;BME280;39679;49.000;8.390;2022-09-24T16:41:19;99721.09;;;20.88;55.16
37390;BME280;39679;49.000;8.390;2022-09-24T16:46:19;99730.94;;;20.86;55.04
37390;BME280;39679;49.000;8.390;2022-09-24T16:51:19;99746.13;;;20.84;54.96
37390;BME280;39679;49.000;8.390;2022-09-24T16:56:20;99740.94;;;20.81;53.68
37390;BME280;39679;49.000;8.390;2022-09-24T17:01:20;99740.25;;;20.76;53.91
37390;BME280;39679;49.000;8.390;2022-09-24T17:06:26;99749.84;;;20.80;54.62
37390;BME280;39679;49.000;8.390;2022-09-24T17:11:26;99751.47;;;20.84;54.52
37390;BME280;39679;49.000;8.390;2022-09-24T17:16:27;99754.84;;;20.87;54.47
37390;BME280;39679;49.000;8.390;2022-09-24T17:21:28;99755.66;;;20.89;54.64
37390;BME280;39679;49.000;8.390;2022-09-24T17:26:28;99760.25;;;20.86;54.80
37390;BME280;39679;49.000;8.390;2022-09-24T17:31:29;99760.16;;;20.67;55.49
37390;BME280;39679;49.000;8.390;2022-09-24T17:36:31;99766.84;;;20.56;55.73
37390;BME280;39679;49.000;8.390;2022-09-24T17:41:32;99773.97;;;20.55;55.53
37390;BME280;39679;49.000;8.390;2022-09-24T17:46:32;99779.19;;;20.58;55.34
37390;BME280;39679;49.000;8.390;2022-09-24T17:51:34;99786.91;;;20.64;55.39
37390;BME280;39679;49.000;8.390;2022-09-24T17:56:35;99794.38;;;20.54;55.44
37390;BME280;39679;49.000;8.390;2022-09-24T18:01:37;99802.75;;;20.45;56.24
37390;BME280;39679;49.000;8.390;2022-09-24T18:06:38;99798.72;;;20.35;56.67
37390;BME280;39679;49.000;8.390;2022-09-24T18:11:41;99801.97;;;20.20;57.33
37390;BME280;39679;49.000;8.390;2022-09-24T18:16:43;99804.97;;;20.11;57.32
37390;BME280;39679;49.000;8.390;2022-09-24T18:21:44;99823.78;;;20.07;57.49
37390;BME280;39679;49.000;8.390;2022-09-24T18:26:45;99829.19;;;20.04;57.50
37390;BME280;39679;49.000;8.390;2022-09-24T18:31:45;99832.97;;;19.98;57.90
37390;BME280;39679;49.000;8.390;2022-09-24T18:36:46;99837.75;;;19.89;57.72
37390;BME280;39679;49.000;8.390;2022-09-24T18:41:46;99830.41;;;19.72;57.81
37390;BME280;39679;49.000;8.390;2022-09-24T18:46:47;99830.88;;;19.58;57.88
37390;BME280;39679;49.000;8.390;2022-09-24T18:51:47;99836.69;;;19.45;57.83
37390;BME280;39679;49.000;8.390;2022-09-24T18:56:47;99828.25;;;19.34;58.23
37390;BME280;39679;49.000;8.390;2022-09-24T19:01:48;99833.63;;;19.31;58.05
37390;BME280;39679;49.000;8.390;2022-09-24T19:06:49;99832.88;;;19.27;58.08
37390;BME280;39679;49.000;8.390;2022-09-24T19:11:50;99846.97;;;19.29;58.27
37390;BME280;39679;49.000;8.390;2022-09-24T19:16:50;99843.19;;;19.36;57.93
37390;BME280;39679;49.000;8.390;2022-09-24T19:21:50;99851.81;;;19.43;57.37
37390;BME280;39679;49.000;8.390;2022-09-24T19:26:51;99854.19;;;19.50;57.38
37390;BME280;39679;49.000;8.390;2022-09-24T19:31:51;99858.56;;;19.53;57.29
37390;BME280;39679;49.000;8.390;2022-09-24T19:36:52;99855.75;;;19.57;57.11
37390;BME280;39679;49.000;8.390;2022-09-24T19:41:52;99853.75;;;19.62;56.68
37390;BME280;39679;49.000;8.390;2022-09-24T19:46:52;99853.66;;;19.65;56.35
37390;BME280;39679;49.000;8.390;2022-09-24T19:51:53;99855.59;;;19.60;56.20
37390;BME280;39679;49.000;8.390;2022-09-24T19:56:53;99853.97;;;19.58;56.21
37390;BME280;39679;49.000;8.390;2022-09-24T20:01:53;99852.31;;;19.54;56.14
37390;BME280;39679;49.000;8.390;2022-09-24T20:06:54;99847.03;;;19.52;56.11
37390;BME280;39679;49.000;8.390;2022-09-24T20:11:54;99845.59;;;19.44;56.10
37390;BME280;39679;49.000;8.390;2022-09-24T20:16:54;99853.66;;;19.41;56.21
37390;BME280;39679;49.000;8.390;2022-09-24T20:21:55;99853.59;;;19.42;56.36
37390;BME280;39679;49.000;8.390;2022-09-24T20:26:55;99842.06;;;19.43;56.29
37390;BME280;39679;49.000;8.390;2022-09-24T20:31:55;99852.63;;;19.45;56.23
37390;BME280;39679;49.000;8.390;2022-09-24T20:36:56;99854.38;;;19.46;56.29
37390;BME280;39679;49.000;8.390;2022-09-24T20:41:57;99860.59;;;19.45;56.54
37390;BME280;39679;49.000;8.390;2022-09-24T20:46:58;99856.16;;;19.45;56.49
37390;BME280;39679;49.000;8.390;2022-09-24T20:51:58;99858.69;;;19.50;56.09
37390;BME280;39679;49.000;8.390;2022-09-24T20:56:59;99866.44;;;19.56;55.71
37390;BME280;39679;49.000;8.390;2022-09-24T21:01:59;99870.66;;;19.61;55.92
37390;BME280;39679;49.000;8.390;2022-09-24T21:06:59;99859.16;;;19.61;55.77
37390;BME280;39679;49.000;8.390;2022-09-24T21:12:00;99858.19;;;19.63;55.58
37390;BME280;39679;49.000;8.390;2022-09-24T21:17:02;99858.94;;;19.67;55.41
37390;BME280;39679;49.000;8.390;2022-09-24T21:22:02;99855.28;;;19.69;55.24
37390;BME280;39679;49.000;8.390;2022-09-24T21:27:02;99859.66;;;19.72;55.38
37390;BME280;39679;49.000;8.390;2022-09-24T21:32:03;99855.19;;;19.73;55.31
37390;BME280;39679;49.000;8.390;2022-09-24T21:37:03;99851.59;;;19.73;55.02
37390;BME280;39679;49.000;8.390;2022-09-24T21:42:04;99848.88;;;19.75;55.18
37390;BME280;39679;49.000;8.390;2022-09-24T21:47:04;99846.19;;;19.77;55.19
37390;BME280;39679;49.000;8.390;2022-09-24T21:52:04;99843.47;;;19.78;54.87
37390;BME280;39679;49.000;8.390;2022-09-24T21:57:05;99843.47;;;19.78;55.12
37390;BME280;39679;49.000;8.390;2022-09-24T22:02:05;99839.94;;;19.78;54.95
37390;BME280;39679;49.000;8.390;2022-09-24T22:07:06;99853.16;;;19.79;55.19
37390;BME280;39679;49.000;8.390;2022-09-24T22:12:06;99846.94;;;19.80;54.83
37390;BME280;39679;49.000;8.390;2022-09-24T22:17:06;99839.13;;;19.76;55.17
37390;BME280;39679;49.000;8.390;2022-09-24T22:22:07;99843.84;;;19.67;55.80
37390;BME280;39679;49.000;8.390;2022-09-24T22:27:07;99844.00;;;19.63;56.11
37390;BME280;39679;49.000;8.390;2022-09-24T22:32:07;99842.44;;;19.57;56.54
37390;BME280;39679;49.000;8.390;2022-09-24T22:37:08;99843.69;;;19.47;56.96
37390;BME280;39679;49.000;8.390;2022-09-24T22:42:11;99834.97;;;19.44;57.42
37390;BME280;39679;49.000;8.390;2022-09-24T22:47:11;99836.84;;;19.40;57.48
37390;BME280;39679;49.000;8.390;2022-09-24T22:52:12;99834.16;;;19.42;57.17
37390;BME280;39679;49.000;8.390;2022-09-24T22:57:12;99830.97;;;19.31;57.43
37390;BME280;39679;49.000;8.390;2022-09-24T23:02:12;99827.69;;;19.23;57.62
37390;BME280;39679;49.000;8.390;2022-09-24T23:07:13;99834.09;;;19.17;57.85
37390;BME280;39679;49.000;8.390;2022-09-24T23:12:13;99831.44;;;19.17;57.80
37390;BME280;39679;49.000;8.390;2022-09-24T23:17:13;99833.97;;;19.20;57.85
37390;BME280;39679;49.000;8.390;2022-09-24T23:22:20;99830.34;;;19.23;57.57
37390;BME280;39679;49.000;8.390;2022-09-24T23:27:21;99831.03;;;19.29;56.93
37390;BME280;39679;49.000;8.390;2022-09-24T23:32:21;99836.97;;;19.37;56.78
37390;BME280;39679;49.000;8.390;2022-09-24T23:37:21;99832.25;;;19.45;56.17
37390;BME280;39679;49.000;8.390;2022-09-24T23:42:22;99836.41;;;19.52;55.90
37390;BME280;39679;49.000;8.390;2022-09-24T23:47:22;99836.25;;;19.57;55.57
37390;BME280;39679;49.000;8.390;2022-09-24T23:52:22;99828.19;;;19.60;55.64
37390;BME280;39679;49.000;8.390;2022-09-24T23:57:23;99839.50;;;19.65;55.46
